sensor_id;sensor_type;location;lat;lon;timestamp;P1;durP1;ratioP1;P2;durP2;ratioP2
49440;SDS011;35317;51.978;6.296;2023-01-23T00:04:37;53.75;;;22.88;;
49440;SDS011;35317;51.978;6.296;2023-01-23T00:09:38;52.13;;;23.55;;
49440;SDS011;35317;51.978;6.296;2023-01-23T00:14:39;55.80;;;23.60;;
49440;SDS011;35317;51.978;6.296;2023-01-23T00:19:40;47.47;;;23.15;;
49440;SDS011;35317;51.978;6.296;2023-01-23T00:24:41;53.55;;;22.70;;
49440;SDS011;35317;51.978;6.296;2023-01-23T00:29:42;65.95;;;24.33;;
49440;SDS011;35317;51.978;6.296;2023-01-23T00:34:45;60.92;;;24.23;;
49440;SDS011;35317;51.978;6.296;2023-01-23T00:39:46;63.05;;;25.13;;
49440;SDS011;35317;51.978;6.296;2023-01-23T00:44:50;72.00;;;26.55;;
49440;SDS011;35317;51.978;6.296;2023-01-23T00:49:51;55.15;;;25.70;;
49440;SDS011;35317;51.978;6.296;2023-01-23T00:54:53;69.30;;;27.98;;
49440;SDS011;35317;51.978;6.296;2023-01-23T00:59:54;64.15;;;27.10;;
49440;SDS011;35317;51.978;6.296;2023-01-23T01:04:55;62.80;;;26.17;;
49440;SDS011;35317;51.978;6.296;2023-01-23T01:09:56;62.80;;;26.63;;
49440;SDS011;35317;51.978;6.296;2023-01-23T01:14:57;69.50;;;26.83;;
49440;SDS011;35317;51.978;6.296;2023-01-23T01:19:58;57.17;;;27.75;;
49440;SDS011;35317;51.978;6.296;2023-01-23T01:24:59;65.47;;;26.75;;
49440;SDS011;35317;51.978;6.296;2023-01-23T01:30:00;63.50;;;26.23;;
49440;SDS011;35317;51.978;6.296;2023-01-23T01:35:02;65.80;;;27.20;;
49440;SDS011;35317;51.978;6.296;2023-01-23T01:40:06;57.80;;;26.43;;
49440;SDS011;35317;51.978;6.296;2023-01-23T01:56:43;69.93;;;26.80;;
49440;SDS011;35317;51.978;6.296;2023-01-23T02:02:05;66.05;;;27.08;;
49440;SDS011;35317;51.978;6.296;2023-01-23T02:07:14;60.30;;;27.52;;
49440;SDS011;35317;51.978;6.296;2023-01-23T02:12:27;66.20;;;27.75;;
49440;SDS011;35317;51.978;6.296;2023-01-23T02:17:29;56.97;;;27.38;;
49440;SDS011;35317;51.978;6.296;2023-01-23T02:22:34;65.05;;;27.73;;
49440;SDS011;35317;51.978;6.296;2023-01-23T02:27:52;65.75;;;27.10;;
49440;SDS011;35317;51.978;6.296;2023-01-23T02:32:53;64.32;;;27.50;;
49440;SDS011;35317;51.978;6.296;2023-01-23T02:37:55;56.85;;;25.60;;
49440;SDS011;35317;51.978;6.296;2023-01-23T02:43:00;62.60;;;27.30;;
49440;SDS011;35317;51.978;6.296;2023-01-23T02:48:02;58.00;;;26.85;;
49440;SDS011;35317;51.978;6.296;2023-01-23T02:53:05;59.63;;;26.02;;
49440;SDS011;35317;51.978;6.296;2023-01-23T02:58:06;80.32;;;28.52;;
49440;SDS011;35317;51.978;6.296;2023-01-23T03:03:26;65.22;;;28.27;;
49440;SDS011;35317;51.978;6.296;2023-01-23T03:08:28;63.70;;;27.20;;
49440;SDS011;35317;51.978;6.296;2023-01-23T03:13:35;58.72;;;25.98;;
49440;SDS011;35317;51.978;6.296;2023-01-23T03:18:36;61.10;;;26.23;;
49440;SDS011;35317;51.978;6.296;2023-01-23T03:23:40;66.45;;;27.35;;
49440;SDS011;35317;51.978;6.296;2023-01-23T03:28:43;63.67;;;27.80;;
49440;SDS011;35317;51.978;6.296;2023-01-23T03:34:03;57.08;;;26.52;;
49440;SDS011;35317;51.978;6.296;2023-01-23T03:39:05;55.55;;;25.85;;
49440;SDS011;35317;51.978;6.296;2023-01-23T03:44:25;52.28;;;26.48;;
49440;SDS011;35317;51.978;6.296;2023-01-23T03:49:27;64.47;;;28.75;;
49440;SDS011;35317;51.978;6.296;2023-01-23T03:54:28;65.85;;;27.63;;
49440;SDS011;35317;51.978;6.296;2023-01-23T03:59:29;62.10;;;28.70;;
49440;SDS011;35317;51.978;6.296;2023-01-23T04:04:31;58.53;;;26.00;;
49440;SDS011;35317;51.978;6.296;2023-01-23T04:09:33;54.17;;;26.25;;
49440;SDS011;35317;51.978;6.296;2023-01-23T04:14:34;60.20;;;26.20;;
49440;SDS011;35317;51.978;6.296;2023-01-23T04:19:36;56.92;;;26.80;;
49440;SDS011;35317;51.978;6.296;2023-01-23T04:24:37;59.72;;;27.33;;
49440;SDS011;35317;51.978;6.296;2023-01-23T04:29:38;55.50;;;25.27;;
49440;SDS011;35317;51.978;6.296;2023-01-23T04:34:39;55.47;;;26.25;;
49440;SDS011;35317;51.978;6.296;2023-01-23T04:39:40;55.63;;;26.10;;
49440;SDS011;35317;51.978;6.296;2023-01-23T04:44:42;61.80;;;26.38;;
49440;SDS011;35317;51.978;6.296;2023-01-23T04:49:43;57.28;;;26.73;;
49440;SDS011;35317;51.978;6.296;2023-01-23T04:54:44;58.72;;;27.63;;
49440;SDS011;35317;51.978;6.296;2023-01-23T04:59:45;56.45;;;26.52;;
49440;SDS011;35317;51.978;6.296;2023-01-23T05:04:46;52.20;;;26.08;;
49440;SDS011;35317;51.978;6.296;2023-01-23T05:09:47;54.08;;;26.40;;
49440;SDS011;35317;51.978;6.296;2023-01-23T05:14:48;59.13;;;28.25;;
49440;SDS011;35317;51.978;6.296;2023-01-23T05:19:49;58.78;;;27.13;;
49440;SDS011;35317;51.978;6.296;2023-01-23T05:24:50;55.10;;;26.98;;
49440;SDS011;35317;51.978;6.296;2023-01-23T05:29:51;51.90;;;25.45;;
49440;SDS011;35317;51.978;6.296;2023-01-23T05:34:52;54.50;;;25.20;;
49440;SDS011;35317;51.978;6.296;2023-01-23T05:39:53;60.20;;;25.63;;
49440;SDS011;35317;51.978;6.296;2023-01-23T05:44:54;58.60;;;25.50;;
49440;SDS011;35317;51.978;6.296;2023-01-23T05:49:55;56.15;;;25.75;;
49440;SDS011;35317;51.978;6.296;2023-01-23T05:54:56;50.60;;;24.42;;
49440;SDS011;35317;51.978;6.296;2023-01-23T05:59:57;53.58;;;25.52;;
49440;SDS011;35317;51.978;6.296;2023-01-23T06:04:58;57.47;;;25.25;;
49440;SDS011;35317;51.978;6.296;2023-01-23T06:09:59;55.40;;;26.60;;
49440;SDS011;35317;51.978;6.296;2023-01-23T06:15:00;59.13;;;26.85;;
49440;SDS011;35317;51.978;6.296;2023-01-23T06:20:02;56.05;;;26.48;;
49440;SDS011;35317;51.978;6.296;2023-01-23T06:25:04;59.95;;;25.92;;
49440;SDS011;35317;51.978;6.296;2023-01-23T06:30:06;53.25;;;27.58;;
49440;SDS011;35317;51.978;6.296;2023-01-23T06:35:08;56.70;;;27.23;;
49440;SDS011;35317;51.978;6.296;2023-01-23T06:40:09;57.80;;;27.10;;
49440;SDS011;35317;51.978;6.296;2023-01-23T06:45:12;59.70;;;27.08;;
49440;SDS011;35317;51.978;6.296;2023-01-23T06:50:13;56.22;;;27.15;;
49440;SDS011;35317;51.978;6.296;2023-01-23T06:55:15;51.20;;;26.33;;
49440;SDS011;35317;51.978;6.296;2023-01-23T07:00:17;53.58;;;27.38;;
49440;SDS011;35317;51.978;6.296;2023-01-23T07:05:18;54.50;;;27.05;;
49440;SDS011;35317;51.978;6.296;2023-01-23T07:10:19;60.70;;;28.15;;
49440;SDS011;35317;51.978;6.296;2023-01-23T07:15:22;57.65;;;28.25;;
49440;SDS011;35317;51.978;6.296;2023-01-23T07:20:23;56.20;;;27.58;;
49440;SDS011;35317;51.978;6.296;2023-01-23T07:25:26;61.83;;;28.85;;
49440;SDS011;35317;51.978;6.296;2023-01-23T07:30:27;51.65;;;27.35;;
49440;SDS011;35317;51.978;6.296;2023-01-23T07:35:29;61.78;;;27.75;;
49440;SDS011;35317;51.978;6.296;2023-01-23T07:40:30;60.38;;;26.15;;
49440;SDS011;35317;51.978;6.296;2023-01-23T07:45:31;57.83;;;27.38;;
49440;SDS011;35317;51.978;6.296;2023-01-23T07:50:32;57.67;;;28.13;;
49440;SDS011;35317;51.978;6.296;2023-01-23T07:55:36;60.80;;;27.73;;
49440;SDS011;35317;51.978;6.296;2023-01-23T08:00:38;53.30;;;27.30;;
49440;SDS011;35317;51.978;6.296;2023-01-23T08:05:41;56.83;;;27.92;;
49440;SDS011;35317;51.978;6.296;2023-01-23T08:10:42;57.35;;;28.42;;
49440;SDS011;35317;51.978;6.296;2023-01-23T08:15:43;61.58;;;27.98;;
49440;SDS011;35317;51.978;6.296;2023-01-23T08:20:51;63.58;;;28.90;;
49440;SDS011;35317;51.978;6.296;2023-01-23T08:25:57;53.47;;;27.17;;
49440;SDS011;35317;51.978;6.296;2023-01-23T08:36:03;61.63;;;28.10;;
49440;SDS011;35317;51.978;6.296;2023-01-23T08:41:13;59.58;;;27.65;;
49440;SDS011;35317;51.978;6.296;2023-01-23T08:46:14;61.85;;;28.05;;
49440;SDS011;35317;51.978;6.296;2023-01-23T08:51:16;58.15;;;27.25;;
49440;SDS011;35317;51.978;6.296;2023-01-23T08:56:20;59.53;;;28.35;;
49440;SDS011;35317;51.978;6.296;2023-01-23T09:01:24;60.40;;;28.02;;
49440;SDS011;35317;51.978;6.296;2023-01-23T09:06:27;59.22;;;27.92;;
49440;SDS011;35317;51.978;6.296;2023-01-23T09:11:28;57.35;;;27.20;;
49440;SDS011;35317;51.978;6.296;2023-01-23T09:16:29;52.05;;;26.05;;
49440;SDS011;35317;51.978;6.296;2023-01-23T09:21:30;49.20;;;25.52;;
49440;SDS011;35317;51.978;6.296;2023-01-23T09:26:31;46.63;;;23.75;;
49440;SDS011;35317;51.978;6.296;2023-01-23T09:31:32;51.45;;;26.27;;
49440;SDS011;35317;51.978;6.296;2023-01-23T09:36:33;51.17;;;23.98;;
49440;SDS011;35317;51.978;6.296;2023-01-23T09:41:34;47.45;;;24.48;;
49440;SDS011;35317;51.978;6.296;2023-01-23T09:46:43;47.90;;;23.98;;
49440;SDS011;35317;51.978;6.296;2023-01-23T09:57:11;48.90;;;22.77;;
49440;SDS011;35317;51.978;6.296;2023-01-23T10:02:19;47.63;;;23.10;;
49440;SDS011;35317;51.978;6.296;2023-01-23T10:24:00;39.67;;;20.83;;
49440;SDS011;35317;51.978;6.296;2023-01-23T10:29:31;43.95;;;22.23;;
49440;SDS011;35317;51.978;6.296;2023-01-23T10:45:41;43.70;;;21.77;;
49440;SDS011;35317;51.978;6.296;2023-01-23T10:50:44;42.15;;;21.92;;
49440;SDS011;35317;51.978;6.296;2023-01-23T10:55:45;42.53;;;21.90;;
49440;SDS011;35317;51.978;6.296;2023-01-23T11:00:47;39.75;;;22.13;;
49440;SDS011;35317;51.978;6.296;2023-01-23T11:05:54;46.17;;;23.10;;
49440;SDS011;35317;51.978;6.296;2023-01-23T11:16:22;40.03;;;22.17;;
49440;SDS011;35317;51.978;6.296;2023-01-23T11:21:26;36.65;;;23.00;;
49440;SDS011;35317;51.978;6.296;2023-01-23T11:27:00;43.60;;;22.58;;
49440;SDS011;35317;51.978;6.296;2023-01-23T11:32:15;35.03;;;20.45;;
49440;SDS011;35317;51.978;6.296;2023-01-23T11:37:18;41.60;;;23.50;;
49440;SDS011;35317;51.978;6.296;2023-01-23T11:42:25;38.67;;;21.38;;
49440;SDS011;35317;51.978;6.296;2023-01-23T11:47:49;35.50;;;20.35;;
49440;SDS011;35317;51.978;6.296;2023-01-23T12:15:10;28.65;;;17.17;;
49440;SDS011;35317;51.978;6.296;2023-01-23T12:20:51;29.80;;;15.65;;
49440;SDS011;35317;51.978;6.296;2023-01-23T12:26:12;33.85;;;18.40;;
49440;SDS011;35317;51.978;6.296;2023-01-23T12:42:07;31.10;;;18.25;;
49440;SDS011;35317;51.978;6.296;2023-01-23T12:47:21;34.35;;;19.92;;
49440;SDS011;35317;51.978;6.296;2023-01-23T12:52:28;34.65;;;19.48;;
49440;SDS011;35317;51.978;6.296;2023-01-23T12:57:51;32.85;;;19.92;;
49440;SDS011;35317;51.978;6.296;2023-01-23T13:03:01;35.58;;;19.63;;
49440;SDS011;35317;51.978;6.296;2023-01-23T13:08:19;30.70;;;18.65;;
49440;SDS011;35317;51.978;6.296;2023-01-23T13:13:34;34.55;;;18.95;;
49440;SDS011;35317;51.978;6.296;2023-01-23T13:18:35;33.25;;;19.05;;
49440;SDS011;35317;51.978;6.296;2023-01-23T13:24:09;29.13;;;18.58;;
49440;SDS011;35317;51.978;6.296;2023-01-23T13:51:53;26.30;;;16.75;;
49440;SDS011;35317;51.978;6.296;2023-01-23T13:56:57;29.67;;;18.27;;
49440;SDS011;35317;51.978;6.296;2023-01-23T14:02:00;30.58;;;18.92;;
49440;SDS011;35317;51.978;6.296;2023-01-23T14:07:41;27.58;;;17.60;;
49440;SDS011;35317;51.978;6.296;2023-01-23T14:18:12;28.42;;;17.85;;
49440;SDS011;35317;51.978;6.296;2023-01-23T14:23:37;30.25;;;17.63;;
49440;SDS011;35317;51.978;6.296;2023-01-23T14:28:49;32.58;;;18.27;;
49440;SDS011;35317;51.978;6.296;2023-01-23T14:33:54;29.92;;;18.40;;
49440;SDS011;35317;51.978;6.296;2023-01-23T14:39:02;27.17;;;17.73;;
49440;SDS011;35317;51.978;6.296;2023-01-23T14:44:05;32.05;;;18.58;;
49440;SDS011;35317;51.978;6.296;2023-01-23T14:49:14;30.00;;;19.40;;
49440;SDS011;35317;51.978;6.296;2023-01-23T14:54:24;31.58;;;19.63;;
49440;SDS011;35317;51.978;6.296;2023-01-23T14:59:29;30.45;;;19.50;;
49440;SDS011;35317;51.978;6.296;2023-01-23T15:04:35;32.83;;;17.88;;
49440;SDS011;35317;51.978;6.296;2023-01-23T15:09:37;32.05;;;18.88;;
49440;SDS011;35317;51.978;6.296;2023-01-23T15:14:44;30.63;;;19.02;;
49440;SDS011;35317;51.978;6.296;2023-01-23T15:19:48;28.65;;;18.92;;
49440;SDS011;35317;51.978;6.296;2023-01-23T15:24:55;28.92;;;19.27;;
49440;SDS011;35317;51.978;6.296;2023-01-23T15:35:28;31.02;;;19.63;;
49440;SDS011;35317;51.978;6.296;2023-01-23T15:40:31;30.65;;;19.38;;
49440;SDS011;35317;51.978;6.296;2023-01-23T15:50:34;31.52;;;18.58;;
49440;SDS011;35317;51.978;6.296;2023-01-23T15:55:35;28.60;;;18.98;;
49440;SDS011;35317;51.978;6.296;2023-01-23T16:00:36;32.92;;;20.05;;
49440;SDS011;35317;51.978;6.296;2023-01-23T16:05:37;33.72;;;19.77;;
49440;SDS011;35317;51.978;6.296;2023-01-23T16:10:38;32.10;;;20.42;;
49440;SDS011;35317;51.978;6.296;2023-01-23T16:15:39;33.38;;;21.35;;
49440;SDS011;35317;51.978;6.296;2023-01-23T16:20:41;32.00;;;20.42;;
49440;SDS011;35317;51.978;6.296;2023-01-23T16:25:44;35.10;;;20.17;;
49440;SDS011;35317;51.978;6.296;2023-01-23T16:30:46;33.45;;;20.30;;
49440;SDS011;35317;51.978;6.296;2023-01-23T16:35:48;33.08;;;20.75;;
49440;SDS011;35317;51.978;6.296;2023-01-23T16:40:50;32.17;;;18.52;;
49440;SDS011;35317;51.978;6.296;2023-01-23T16:45:53;29.33;;;18.50;;
49440;SDS011;35317;51.978;6.296;2023-01-23T16:50:57;31.33;;;19.48;;
49440;SDS011;35317;51.978;6.296;2023-01-23T16:56:04;33.28;;;20.10;;
49440;SDS011;35317;51.978;6.296;2023-01-23T17:01:16;34.83;;;19.70;;
49440;SDS011;35317;51.978;6.296;2023-01-23T17:06:19;35.72;;;21.13;;
49440;SDS011;35317;51.978;6.296;2023-01-23T17:11:22;34.50;;;21.42;;
49440;SDS011;35317;51.978;6.296;2023-01-23T17:16:28;34.08;;;21.23;;
49440;SDS011;35317;51.978;6.296;2023-01-23T17:21:31;31.15;;;20.67;;
49440;SDS011;35317;51.978;6.296;2023-01-23T17:26:33;32.17;;;20.33;;
49440;SDS011;35317;51.978;6.296;2023-01-23T17:31:34;33.92;;;20.83;;
49440;SDS011;35317;51.978;6.296;2023-01-23T17:36:36;34.35;;;21.20;;
49440;SDS011;35317;51.978;6.296;2023-01-23T17:41:37;32.13;;;19.92;;
49440;SDS011;35317;51.978;6.296;2023-01-23T17:46:37;31.27;;;19.92;;
49440;SDS011;35317;51.978;6.296;2023-01-23T17:51:38;33.72;;;20.70;;
49440;SDS011;35317;51.978;6.296;2023-01-23T17:56:39;33.90;;;19.88;;
49440;SDS011;35317;51.978;6.296;2023-01-23T18:01:40;34.20;;;21.10;;
49440;SDS011;35317;51.978;6.296;2023-01-23T18:06:41;33.17;;;19.70;;
49440;SDS011;35317;51.978;6.296;2023-01-23T18:11:42;33.50;;;19.85;;
49440;SDS011;35317;51.978;6.296;2023-01-23T18:16:51;30.05;;;18.33;;
49440;SDS011;35317;51.978;6.296;2023-01-23T18:21:53;32.63;;;18.80;;
49440;SDS011;35317;51.978;6.296;2023-01-23T18:26:59;29.90;;;18.50;;
49440;SDS011;35317;51.978;6.296;2023-01-23T18:37:38;26.92;;;16.38;;
49440;SDS011;35317;51.978;6.296;2023-01-23T18:43:12;25.77;;;16.27;;
49440;SDS011;35317;51.978;6.296;2023-01-23T18:48:32;24.98;;;15.57;;
49440;SDS011;35317;51.978;6.296;2023-01-23T18:53:45;27.08;;;16.35;;
49440;SDS011;35317;51.978;6.296;2023-01-23T19:04:32;28.80;;;16.58;;
49440;SDS011;35317;51.978;6.296;2023-01-23T19:09:46;22.95;;;14.90;;
49440;SDS011;35317;51.978;6.296;2023-01-23T19:20:38;27.65;;;15.68;;
49440;SDS011;35317;51.978;6.296;2023-01-23T19:25:49;28.90;;;15.98;;
49440;SDS011;35317;51.978;6.296;2023-01-23T19:30:50;25.25;;;15.13;;
49440;SDS011;35317;51.978;6.296;2023-01-23T19:35:50;27.17;;;15.65;;
49440;SDS011;35317;51.978;6.296;2023-01-23T19:40:55;24.50;;;15.38;;
49440;SDS011;35317;51.978;6.296;2023-01-23T19:45:56;24.15;;;15.57;;
49440;SDS011;35317;51.978;6.296;2023-01-23T19:50:58;25.15;;;14.77;;
49440;SDS011;35317;51.978;6.296;2023-01-23T19:55:59;22.70;;;14.40;;
49440;SDS011;35317;51.978;6.296;2023-01-23T20:01:00;25.42;;;14.23;;
49440;SDS011;35317;51.978;6.296;2023-01-23T20:06:01;22.85;;;14.38;;
49440;SDS011;35317;51.978;6.296;2023-01-23T20:11:02;23.27;;;13.13;;
49440;SDS011;35317;51.978;6.296;2023-01-23T20:16:21;26.40;;;15.48;;
49440;SDS011;35317;51.978;6.296;2023-01-23T20:21:25;25.75;;;14.82;;
49440;SDS011;35317;51.978;6.296;2023-01-23T20:26:26;22.23;;;13.75;;
49440;SDS011;35317;51.978;6.296;2023-01-23T20:31:27;22.25;;;13.70;;
49440;SDS011;35317;51.978;6.296;2023-01-23T20:36:28;23.27;;;13.77;;
49440;SDS011;35317;51.978;6.296;2023-01-23T20:41:29;23.48;;;14.75;;
49440;SDS011;35317;51.978;6.296;2023-01-23T20:46:30;27.27;;;15.15;;
49440;SDS011;35317;51.978;6.296;2023-01-23T20:51:31;24.88;;;14.85;;
49440;SDS011;35317;51.978;6.296;2023-01-23T20:56:31;24.08;;;13.75;;
49440;SDS011;35317;51.978;6.296;2023-01-23T21:01:33;24.00;;;14.07;;
49440;SDS011;35317;51.978;6.296;2023-01-23T21:06:56;24.05;;;13.18;;
49440;SDS011;35317;51.978;6.296;2023-01-23T21:11:57;27.70;;;14.68;;
49440;SDS011;35317;51.978;6.296;2023-01-23T21:17:01;23.10;;;14.68;;
49440;SDS011;35317;51.978;6.296;2023-01-23T21:22:04;25.10;;;15.23;;
49440;SDS011;35317;51.978;6.296;2023-01-23T21:27:06;25.92;;;15.15;;
49440;SDS011;35317;51.978;6.296;2023-01-23T21:32:07;25.50;;;15.30;;
49440;SDS011;35317;51.978;6.296;2023-01-23T21:37:09;22.55;;;11.85;;
49440;SDS011;35317;51.978;6.296;2023-01-23T21:42:10;24.95;;;14.85;;
49440;SDS011;35317;51.978;6.296;2023-01-23T21:47:11;23.83;;;14.50;;
49440;SDS011;35317;51.978;6.296;2023-01-23T21:52:11;22.55;;;13.75;;
49440;SDS011;35317;51.978;6.296;2023-01-23T21:57:12;22.42;;;14.13;;
49440;SDS011;35317;51.978;6.296;2023-01-23T22:02:13;26.30;;;14.18;;
49440;SDS011;35317;51.978;6.296;2023-01-23T22:07:14;24.17;;;13.73;;
49440;SDS011;35317;51.978;6.296;2023-01-23T22:12:14;22.38;;;14.13;;
49440;SDS011;35317;51.978;6.296;2023-01-23T22:17:15;25.35;;;15.27;;
49440;SDS011;35317;51.978;6.296;2023-01-23T22:22:16;27.95;;;15.52;;
49440;SDS011;35317;51.978;6.296;2023-01-23T22:27:18;25.25;;;14.73;;
49440;SDS011;35317;51.978;6.296;2023-01-23T22:32:19;23.63;;;14.43;;
49440;SDS011;35317;51.978;6.296;2023-01-23T22:37:19;22.75;;;14.10;;
49440;SDS011;35317;51.978;6.296;2023-01-23T22:42:21;25.00;;;14.88;;
49440;SDS011;35317;51.978;6.296;2023-01-23T22:47:22;24.60;;;15.07;;
49440;SDS011;35317;51.978;6.296;2023-01-23T22:52:22;24.73;;;14.93;;
49440;SDS011;35317;51.978;6.296;2023-01-23T22:57:23;25.50;;;14.25;;
49440;SDS011;35317;51.978;6.296;2023-01-23T23:02:24;24.15;;;13.90;;
49440;SDS011;35317;51.978;6.296;2023-01-23T23:07:25;25.92;;;15.13;;
49440;SDS011;35317;51.978;6.296;2023-01-23T23:12:26;25.08;;;15.57;;
49440;SDS011;35317;51.978;6.296;2023-01-23T23:17:27;24.45;;;15.32;;
49440;SDS011;35317;51.978;6.296;2023-01-23T23:22:28;29.63;;;14.52;;
49440;SDS011;35317;51.978;6.296;2023-01-23T23:27:29;27.00;;;16.15;;
49440;SDS011;35317;51.978;6.296;2023-01-23T23:32:30;26.40;;;15.80;;
49440;SDS011;35317;51.978;6.296;2023-01-23T23:37:30;24.65;;;14.60;;
49440;SDS011;35317;51.978;6.296;2023-01-23T23:42:31;25.75;;;15.65;;
49440;SDS011;35317;51.978;6.296;2023-01-23T23:47:32;25.80;;;15.52;;
49440;SDS011;35317;51.978;6.296;2023-01-23T23:52:32;22.70;;;13.38;;
49440;SDS011;35317;51.978;6.296;2023-01-23T23:57:33;23.58;;;14.13;;
